sensor_id;sensor_type;location;lat;lon;timestamp;P1;durP1;ratioP1;P2;durP2;ratioP2
10383;SDS011;5238;43.508;4.980;2023-07-30T00:02:24;9.18;;;5.90;;
10383;SDS011;5238;43.508;4.980;2023-07-30T00:04:51;6.32;;;5.55;;
10383;SDS011;5238;43.508;4.980;2023-07-30T00:07:18;6.65;;;5.80;;
10383;SDS011;5238;43.508;4.980;2023-07-30T00:09:45;11.27;;;6.38;;
10383;SDS011;5238;43.508;4.980;2023-07-30T00:12:12;7.65;;;6.28;;
10383;SDS011;5238;43.508;4.980;2023-07-30T00:14:40;9.68;;;6.05;;
10383;SDS011;5238;43.508;4.980;2023-07-30T00:17:07;7.35;;;5.68;;
10383;SDS011;5238;43.508;4.980;2023-07-30T00:19:34;7.47;;;5.50;;
10383;SDS011;5238;43.508;4.980;2023-07-30T00:22:01;8.45;;;6.78;;
10383;SDS011;5238;43.508;4.980;2023-07-30T00:24:28;8.27;;;6.10;;
10383;SDS011;5238;43.508;4.980;2023-07-30T00:26:55;8.63;;;5.93;;
10383;SDS011;5238;43.508;4.980;2023-07-30T00:29:22;10.13;;;5.85;;
10383;SDS011;5238;43.508;4.980;2023-07-30T00:31:50;6.13;;;5.53;;
10383;SDS011;5238;43.508;4.980;2023-07-30T00:34:17;7.15;;;6.43;;
10383;SDS011;5238;43.508;4.980;2023-07-30T00:36:44;9.85;;;5.68;;
10383;SDS011;5238;43.508;4.980;2023-07-30T00:39:11;7.20;;;6.28;;
10383;SDS011;5238;43.508;4.980;2023-07-30T00:41:38;7.55;;;6.10;;
10383;SDS011;5238;43.508;4.980;2023-07-30T00:44:05;7.60;;;5.68;;
10383;SDS011;5238;43.508;4.980;2023-07-30T00:46:32;8.52;;;6.13;;
10383;SDS011;5238;43.508;4.980;2023-07-30T00:49:01;8.23;;;6.13;;
10383;SDS011;5238;43.508;4.980;2023-07-30T00:51:28;7.53;;;6.10;;
10383;SDS011;5238;43.508;4.980;2023-07-30T00:53:57;7.22;;;6.22;;
10383;SDS011;5238;43.508;4.980;2023-07-30T00:56:25;9.05;;;5.97;;
10383;SDS011;5238;43.508;4.980;2023-07-30T00:58:52;7.30;;;6.03;;
10383;SDS011;5238;43.508;4.980;2023-07-30T01:01:20;8.35;;;5.93;;
10383;SDS011;5238;43.508;4.980;2023-07-30T01:03:47;7.18;;;6.38;;
10383;SDS011;5238;43.508;4.980;2023-07-30T01:06:16;7.35;;;5.68;;
10383;SDS011;5238;43.508;4.980;2023-07-30T01:08:45;10.10;;;6.40;;
10383;SDS011;5238;43.508;4.980;2023-07-30T01:11:12;7.50;;;5.88;;
10383;SDS011;5238;43.508;4.980;2023-07-30T01:13:40;8.05;;;5.95;;
10383;SDS011;5238;43.508;4.980;2023-07-30T01:16:08;8.43;;;6.50;;
10383;SDS011;5238;43.508;4.980;2023-07-30T01:18:36;9.48;;;6.38;;
10383;SDS011;5238;43.508;4.980;2023-07-30T01:21:05;8.27;;;6.90;;
10383;SDS011;5238;43.508;4.980;2023-07-30T01:23:32;7.32;;;6.53;;
10383;SDS011;5238;43.508;4.980;2023-07-30T01:26:00;10.52;;;6.55;;
10383;SDS011;5238;43.508;4.980;2023-07-30T01:28:35;8.43;;;6.93;;
10383;SDS011;5238;43.508;4.980;2023-07-30T01:31:05;6.45;;;5.55;;
10383;SDS011;5238;43.508;4.980;2023-07-30T01:33:34;7.90;;;6.65;;
10383;SDS011;5238;43.508;4.980;2023-07-30T01:36:01;7.70;;;6.95;;
10383;SDS011;5238;43.508;4.980;2023-07-30T01:38:30;11.05;;;6.45;;
10383;SDS011;5238;43.508;4.980;2023-07-30T01:40:58;9.15;;;7.10;;
10383;SDS011;5238;43.508;4.980;2023-07-30T01:43:25;10.43;;;6.15;;
10383;SDS011;5238;43.508;4.980;2023-07-30T01:45:52;8.50;;;6.13;;
10383;SDS011;5238;43.508;4.980;2023-07-30T01:48:19;9.30;;;6.47;;
10383;SDS011;5238;43.508;4.980;2023-07-30T01:50:46;7.93;;;6.25;;
10383;SDS011;5238;43.508;4.980;2023-07-30T01:53:14;7.00;;;6.35;;
10383;SDS011;5238;43.508;4.980;2023-07-30T01:55:42;9.15;;;7.32;;
10383;SDS011;5238;43.508;4.980;2023-07-30T01:58:11;7.65;;;6.38;;
10383;SDS011;5238;43.508;4.980;2023-07-30T02:00:38;9.57;;;6.78;;
10383;SDS011;5238;43.508;4.980;2023-07-30T02:03:06;8.52;;;6.45;;
10383;SDS011;5238;43.508;4.980;2023-07-30T02:05:33;7.68;;;6.55;;
10383;SDS011;5238;43.508;4.980;2023-07-30T02:08:00;8.55;;;7.75;;
10383;SDS011;5238;43.508;4.980;2023-07-30T02:10:27;9.02;;;6.38;;
10383;SDS011;5238;43.508;4.980;2023-07-30T02:12:55;9.63;;;8.38;;
10383;SDS011;5238;43.508;4.980;2023-07-30T02:15:22;11.63;;;8.50;;
10383;SDS011;5238;43.508;4.980;2023-07-30T02:17:49;10.45;;;8.82;;
10383;SDS011;5238;43.508;4.980;2023-07-30T02:20:16;11.15;;;9.05;;
10383;SDS011;5238;43.508;4.980;2023-07-30T02:22:43;12.05;;;9.65;;
10383;SDS011;5238;43.508;4.980;2023-07-30T02:25:10;12.18;;;9.38;;
10383;SDS011;5238;43.508;4.980;2023-07-30T02:27:37;12.18;;;10.07;;
10383;SDS011;5238;43.508;4.980;2023-07-30T02:30:06;13.80;;;10.43;;
10383;SDS011;5238;43.508;4.980;2023-07-30T02:32:33;16.38;;;11.15;;
10383;SDS011;5238;43.508;4.980;2023-07-30T02:35:00;12.93;;;11.23;;
10383;SDS011;5238;43.508;4.980;2023-07-30T02:37:27;15.13;;;11.82;;
10383;SDS011;5238;43.508;4.980;2023-07-30T02:39:54;17.25;;;12.57;;
10383;SDS011;5238;43.508;4.980;2023-07-30T02:42:21;17.42;;;13.40;;
10383;SDS011;5238;43.508;4.980;2023-07-30T02:44:48;18.23;;;13.75;;
10383;SDS011;5238;43.508;4.980;2023-07-30T02:47:16;15.40;;;13.60;;
10383;SDS011;5238;43.508;4.980;2023-07-30T02:49:43;18.45;;;13.82;;
10383;SDS011;5238;43.508;4.980;2023-07-30T02:52:10;17.38;;;14.05;;
10383;SDS011;5238;43.508;4.980;2023-07-30T02:54:37;17.08;;;14.20;;
10383;SDS011;5238;43.508;4.980;2023-07-30T02:57:04;16.85;;;14.88;;
10383;SDS011;5238;43.508;4.980;2023-07-30T02:59:32;18.15;;;14.70;;
10383;SDS011;5238;43.508;4.980;2023-07-30T03:02:01;19.17;;;13.88;;
10383;SDS011;5238;43.508;4.980;2023-07-30T03:04:31;17.92;;;14.15;;
10383;SDS011;5238;43.508;4.980;2023-07-30T03:06:58;15.50;;;13.75;;
10383;SDS011;5238;43.508;4.980;2023-07-30T03:09:25;18.23;;;14.00;;
10383;SDS011;5238;43.508;4.980;2023-07-30T03:11:52;19.13;;;14.60;;
10383;SDS011;5238;43.508;4.980;2023-07-30T03:14:19;18.33;;;14.38;;
10383;SDS011;5238;43.508;4.980;2023-07-30T03:16:46;19.67;;;15.05;;
10383;SDS011;5238;43.508;4.980;2023-07-30T03:19:13;20.25;;;16.17;;
10383;SDS011;5238;43.508;4.980;2023-07-30T03:21:42;21.25;;;16.05;;
10383;SDS011;5238;43.508;4.980;2023-07-30T03:24:08;24.80;;;16.77;;
10383;SDS011;5238;43.508;4.980;2023-07-30T03:26:35;23.08;;;17.48;;
10383;SDS011;5238;43.508;4.980;2023-07-30T03:29:02;21.08;;;16.25;;
10383;SDS011;5238;43.508;4.980;2023-07-30T03:31:29;19.45;;;16.65;;
10383;SDS011;5238;43.508;4.980;2023-07-30T03:33:56;21.55;;;17.58;;
10383;SDS011;5238;43.508;4.980;2023-07-30T03:36:23;18.98;;;16.33;;
10383;SDS011;5238;43.508;4.980;2023-07-30T03:38:52;21.38;;;17.05;;
10383;SDS011;5238;43.508;4.980;2023-07-30T03:41:19;22.38;;;15.90;;
10383;SDS011;5238;43.508;4.980;2023-07-30T03:43:47;18.20;;;15.45;;
10383;SDS011;5238;43.508;4.980;2023-07-30T03:46:14;20.15;;;15.98;;
10383;SDS011;5238;43.508;4.980;2023-07-30T03:48:41;20.25;;;15.15;;
10383;SDS011;5238;43.508;4.980;2023-07-30T03:51:08;17.75;;;14.45;;
10383;SDS011;5238;43.508;4.980;2023-07-30T03:53:35;17.85;;;13.75;;
10383;SDS011;5238;43.508;4.980;2023-07-30T03:56:03;15.48;;;13.57;;
10383;SDS011;5238;43.508;4.980;2023-07-30T03:58:30;14.73;;;13.23;;
10383;SDS011;5238;43.508;4.980;2023-07-30T04:00:57;14.90;;;12.13;;
10383;SDS011;5238;43.508;4.980;2023-07-30T04:03:24;13.48;;;11.27;;
10383;SDS011;5238;43.508;4.980;2023-07-30T04:05:51;13.90;;;12.40;;
10383;SDS011;5238;43.508;4.980;2023-07-30T04:08:18;15.65;;;11.35;;
10383;SDS011;5238;43.508;4.980;2023-07-30T04:10:46;13.30;;;11.70;;
10383;SDS011;5238;43.508;4.980;2023-07-30T04:13:14;13.00;;;9.90;;
10383;SDS011;5238;43.508;4.980;2023-07-30T04:15:41;11.25;;;9.85;;
10383;SDS011;5238;43.508;4.980;2023-07-30T04:18:09;10.00;;;8.93;;
10383;SDS011;5238;43.508;4.980;2023-07-30T04:20:36;10.40;;;9.30;;
10383;SDS011;5238;43.508;4.980;2023-07-30T04:23:03;9.70;;;8.57;;
10383;SDS011;5238;43.508;4.980;2023-07-30T04:25:30;9.85;;;8.10;;
10383;SDS011;5238;43.508;4.980;2023-07-30T04:27:57;8.95;;;8.05;;
10383;SDS011;5238;43.508;4.980;2023-07-30T04:30:25;9.32;;;8.25;;
10383;SDS011;5238;43.508;4.980;2023-07-30T04:32:52;7.82;;;7.10;;
10383;SDS011;5238;43.508;4.980;2023-07-30T04:35:19;8.35;;;7.53;;
10383;SDS011;5238;43.508;4.980;2023-07-30T04:37:46;7.88;;;7.00;;
10383;SDS011;5238;43.508;4.980;2023-07-30T04:40:13;8.02;;;7.22;;
10383;SDS011;5238;43.508;4.980;2023-07-30T04:42:41;7.88;;;6.60;;
10383;SDS011;5238;43.508;4.980;2023-07-30T04:45:08;7.10;;;6.40;;
10383;SDS011;5238;43.508;4.980;2023-07-30T04:47:37;8.25;;;6.20;;
10383;SDS011;5238;43.508;4.980;2023-07-30T04:50:04;6.15;;;5.55;;
10383;SDS011;5238;43.508;4.980;2023-07-30T04:52:31;6.32;;;5.72;;
10383;SDS011;5238;43.508;4.980;2023-07-30T04:54:58;5.75;;;5.25;;
10383;SDS011;5238;43.508;4.980;2023-07-30T04:57:25;9.38;;;5.75;;
10383;SDS011;5238;43.508;4.980;2023-07-30T04:59:52;6.85;;;5.07;;
10383;SDS011;5238;43.508;4.980;2023-07-30T05:02:19;5.72;;;5.22;;
10383;SDS011;5238;43.508;4.980;2023-07-30T05:04:47;5.45;;;4.95;;
10383;SDS011;5238;43.508;4.980;2023-07-30T05:07:14;5.72;;;5.22;;
10383;SDS011;5238;43.508;4.980;2023-07-30T05:09:41;5.82;;;4.45;;
10383;SDS011;5238;43.508;4.980;2023-07-30T05:12:08;4.70;;;4.22;;
10383;SDS011;5238;43.508;4.980;2023-07-30T05:14:35;5.18;;;4.78;;
10383;SDS011;5238;43.508;4.980;2023-07-30T05:17:02;5.32;;;4.82;;
10383;SDS011;5238;43.508;4.980;2023-07-30T05:19:29;6.85;;;5.07;;
10383;SDS011;5238;43.508;4.980;2023-07-30T05:21:58;4.78;;;4.28;;
10383;SDS011;5238;43.508;4.980;2023-07-30T05:24:26;5.03;;;4.60;;
10383;SDS011;5238;43.508;4.980;2023-07-30T05:26:54;4.57;;;4.18;;
10383;SDS011;5238;43.508;4.980;2023-07-30T05:29:20;5.57;;;4.65;;
10383;SDS011;5238;43.508;4.980;2023-07-30T05:31:47;4.78;;;4.35;;
10383;SDS011;5238;43.508;4.980;2023-07-30T05:34:14;6.70;;;4.45;;
10383;SDS011;5238;43.508;4.980;2023-07-30T05:36:41;5.22;;;3.90;;
10383;SDS011;5238;43.508;4.980;2023-07-30T05:39:10;4.43;;;4.03;;
10383;SDS011;5238;43.508;4.980;2023-07-30T05:41:36;4.90;;;4.45;;
10383;SDS011;5238;43.508;4.980;2023-07-30T05:44:03;4.75;;;4.35;;
10383;SDS011;5238;43.508;4.980;2023-07-30T05:46:30;4.63;;;4.13;;
10383;SDS011;5238;43.508;4.980;2023-07-30T05:48:57;4.47;;;4.07;;
10383;SDS011;5238;43.508;4.980;2023-07-30T05:51:24;4.82;;;4.00;;
10383;SDS011;5238;43.508;4.980;2023-07-30T05:53:51;4.65;;;3.95;;
10383;SDS011;5238;43.508;4.980;2023-07-30T05:56:19;4.20;;;3.90;;
10383;SDS011;5238;43.508;4.980;2023-07-30T05:58:46;4.90;;;4.40;;
10383;SDS011;5238;43.508;4.980;2023-07-30T06:01:13;4.68;;;4.18;;
10383;SDS011;5238;43.508;4.980;2023-07-30T06:03:40;4.80;;;4.13;;
10383;SDS011;5238;43.508;4.980;2023-07-30T06:06:07;4.05;;;3.70;;
10383;SDS011;5238;43.508;4.980;2023-07-30T06:08:34;4.35;;;3.90;;
10383;SDS011;5238;43.508;4.980;2023-07-30T06:11:02;5.60;;;4.00;;
10383;SDS011;5238;43.508;4.980;2023-07-30T06:13:30;4.40;;;4.00;;
10383;SDS011;5238;43.508;4.980;2023-07-30T06:15:57;4.53;;;4.13;;
10383;SDS011;5238;43.508;4.980;2023-07-30T06:18:24;3.88;;;3.58;;
10383;SDS011;5238;43.508;4.980;2023-07-30T06:20:51;4.53;;;3.95;;
10383;SDS011;5238;43.508;4.980;2023-07-30T06:23:18;4.35;;;3.97;;
10383;SDS011;5238;43.508;4.980;2023-07-30T06:25:45;4.18;;;3.78;;
10383;SDS011;5238;43.508;4.980;2023-07-30T06:28:12;5.25;;;4.20;;
10383;SDS011;5238;43.508;4.980;2023-07-30T06:30:41;4.32;;;3.92;;
10383;SDS011;5238;43.508;4.980;2023-07-30T06:33:08;5.07;;;3.97;;
10383;SDS011;5238;43.508;4.980;2023-07-30T06:35:35;4.63;;;4.15;;
10383;SDS011;5238;43.508;4.980;2023-07-30T06:38:02;4.35;;;3.95;;
10383;SDS011;5238;43.508;4.980;2023-07-30T06:40:29;4.50;;;4.07;;
10383;SDS011;5238;43.508;4.980;2023-07-30T06:42:55;5.07;;;4.13;;
10383;SDS011;5238;43.508;4.980;2023-07-30T06:45:22;3.92;;;3.55;;
10383;SDS011;5238;43.508;4.980;2023-07-30T06:47:51;4.13;;;3.70;;
10383;SDS011;5238;43.508;4.980;2023-07-30T06:50:18;3.78;;;3.47;;
10383;SDS011;5238;43.508;4.980;2023-07-30T06:52:45;4.43;;;4.03;;
10383;SDS011;5238;43.508;4.980;2023-07-30T06:55:12;3.58;;;3.28;;
10383;SDS011;5238;43.508;4.980;2023-07-30T06:57:39;4.22;;;3.05;;
10383;SDS011;5238;43.508;4.980;2023-07-30T07:00:06;4.07;;;3.28;;
10383;SDS011;5238;43.508;4.980;2023-07-30T07:02:34;3.45;;;3.20;;
10383;SDS011;5238;43.508;4.980;2023-07-30T07:05:03;3.47;;;3.03;;
10383;SDS011;5238;43.508;4.980;2023-07-30T07:07:30;3.40;;;3.10;;
10383;SDS011;5238;43.508;4.980;2023-07-30T07:09:58;4.20;;;2.97;;
10383;SDS011;5238;43.508;4.980;2023-07-30T07:12:25;3.78;;;3.47;;
10383;SDS011;5238;43.508;4.980;2023-07-30T07:14:52;3.30;;;3.00;;
10383;SDS011;5238;43.508;4.980;2023-07-30T07:17:23;4.35;;;3.20;;
10383;SDS011;5238;43.508;4.980;2023-07-30T07:19:50;3.08;;;2.88;;
10383;SDS011;5238;43.508;4.980;2023-07-30T07:22:18;3.65;;;3.05;;
10383;SDS011;5238;43.508;4.980;2023-07-30T07:24:45;4.15;;;3.05;;
10383;SDS011;5238;43.508;4.980;2023-07-30T07:27:12;3.22;;;2.65;;
10383;SDS011;5238;43.508;4.980;2023-07-30T07:29:39;2.47;;;2.22;;
10383;SDS011;5238;43.508;4.980;2023-07-30T07:32:07;3.03;;;2.10;;
10383;SDS011;5238;43.508;4.980;2023-07-30T07:34:34;2.53;;;2.33;;
10383;SDS011;5238;43.508;4.980;2023-07-30T07:37:01;3.10;;;2.53;;
10383;SDS011;5238;43.508;4.980;2023-07-30T07:39:29;2.88;;;2.67;;
10383;SDS011;5238;43.508;4.980;2023-07-30T07:41:56;2.75;;;2.45;;
10383;SDS011;5238;43.508;4.980;2023-07-30T07:44:23;4.10;;;2.65;;
10383;SDS011;5238;43.508;4.980;2023-07-30T07:46:50;3.58;;;2.20;;
10383;SDS011;5238;43.508;4.980;2023-07-30T07:49:18;2.38;;;2.17;;
10383;SDS011;5238;43.508;4.980;2023-07-30T07:51:45;2.35;;;2.20;;
10383;SDS011;5238;43.508;4.980;2023-07-30T07:54:12;2.55;;;2.35;;
10383;SDS011;5238;43.508;4.980;2023-07-30T07:56:40;2.42;;;2.10;;
10383;SDS011;5238;43.508;4.980;2023-07-30T07:59:07;2.20;;;2.00;;
10383;SDS011;5238;43.508;4.980;2023-07-30T08:01:34;3.30;;;2.70;;
10383;SDS011;5238;43.508;4.980;2023-07-30T08:04:01;2.50;;;2.25;;
10383;SDS011;5238;43.508;4.980;2023-07-30T08:06:28;2.15;;;1.90;;
10383;SDS011;5238;43.508;4.980;2023-07-30T08:09:32;2.38;;;2.17;;
10383;SDS011;5238;43.508;4.980;2023-07-30T08:12:08;2.28;;;1.85;;
10383;SDS011;5238;43.508;4.980;2023-07-30T08:14:39;2.03;;;1.92;;
10383;SDS011;5238;43.508;4.980;2023-07-30T08:17:06;2.65;;;2.45;;
10383;SDS011;5238;43.508;4.980;2023-07-30T08:19:33;2.45;;;2.25;;
10383;SDS011;5238;43.508;4.980;2023-07-30T08:22:00;2.40;;;2.20;;
10383;SDS011;5238;43.508;4.980;2023-07-30T08:24:27;2.67;;;2.47;;
10383;SDS011;5238;43.508;4.980;2023-07-30T08:26:54;2.47;;;2.22;;
10383;SDS011;5238;43.508;4.980;2023-07-30T08:29:22;2.70;;;2.50;;
10383;SDS011;5238;43.508;4.980;2023-07-30T08:31:49;2.80;;;2.60;;
10383;SDS011;5238;43.508;4.980;2023-07-30T08:34:16;2.28;;;2.08;;
10383;SDS011;5238;43.508;4.980;2023-07-30T08:36:43;2.15;;;1.95;;
10383;SDS011;5238;43.508;4.980;2023-07-30T08:39:10;2.17;;;2.08;;
10383;SDS011;5238;43.508;4.980;2023-07-30T08:41:37;2.72;;;2.53;;
10383;SDS011;5238;43.508;4.980;2023-07-30T08:44:04;3.35;;;2.53;;
10383;SDS011;5238;43.508;4.980;2023-07-30T08:46:32;2.33;;;2.20;;
10383;SDS011;5238;43.508;4.980;2023-07-30T08:48:59;2.45;;;2.20;;
10383;SDS011;5238;43.508;4.980;2023-07-30T08:51:26;2.75;;;2.53;;
10383;SDS011;5238;43.508;4.980;2023-07-30T08:53:54;3.50;;;2.40;;
10383;SDS011;5238;43.508;4.980;2023-07-30T08:56:23;2.42;;;2.22;;
10383;SDS011;5238;43.508;4.980;2023-07-30T08:58:50;2.17;;;1.98;;
10383;SDS011;5238;43.508;4.980;2023-07-30T09:01:22;2.72;;;2.53;;
10383;SDS011;5238;43.508;4.980;2023-07-30T09:03:55;2.53;;;2.22;;
10383;SDS011;5238;43.508;4.980;2023-07-30T09:06:25;3.08;;;2.42;;
10383;SDS011;5238;43.508;4.980;2023-07-30T09:08:52;2.15;;;2.05;;
10383;SDS011;5238;43.508;4.980;2023-07-30T09:11:19;2.30;;;2.20;;
10383;SDS011;5238;43.508;4.980;2023-07-30T09:13:47;2.13;;;1.95;;
10383;SDS011;5238;43.508;4.980;2023-07-30T09:16:14;2.20;;;2.00;;
10383;SDS011;5238;43.508;4.980;2023-07-30T09:18:42;2.97;;;2.10;;
10383;SDS011;5238;43.508;4.980;2023-07-30T09:21:12;2.30;;;2.10;;
10383;SDS011;5238;43.508;4.980;2023-07-30T09:23:40;2.10;;;1.95;;
10383;SDS011;5238;43.508;4.980;2023-07-30T09:26:07;2.53;;;1.92;;
10383;SDS011;5238;43.508;4.980;2023-07-30T09:28:34;2.00;;;1.90;;
10383;SDS011;5238;43.508;4.980;2023-07-30T09:31:01;2.35;;;2.25;;
10383;SDS011;5238;43.508;4.980;2023-07-30T09:33:28;2.55;;;2.45;;
10383;SDS011;5238;43.508;4.980;2023-07-30T09:35:57;3.08;;;2.03;;
10383;SDS011;5238;43.508;4.980;2023-07-30T09:38:25;2.25;;;2.15;;
10383;SDS011;5238;43.508;4.980;2023-07-30T09:40:59;2.55;;;2.35;;
10383;SDS011;5238;43.508;4.980;2023-07-30T09:43:28;2.42;;;2.05;;
10383;SDS011;5238;43.508;4.980;2023-07-30T09:45:57;2.10;;;1.85;;
10383;SDS011;5238;43.508;4.980;2023-07-30T09:48:29;2.50;;;2.30;;
10383;SDS011;5238;43.508;4.980;2023-07-30T09:50:58;1.80;;;1.70;;
10383;SDS011;5238;43.508;4.980;2023-07-30T09:53:30;1.95;;;1.80;;
10383;SDS011;5238;43.508;4.980;2023-07-30T09:55:59;2.35;;;1.60;;
10383;SDS011;5238;43.508;4.980;2023-07-30T09:58:27;1.75;;;1.60;;
10383;SDS011;5238;43.508;4.980;2023-07-30T10:00:55;2.75;;;2.03;;
10383;SDS011;5238;43.508;4.980;2023-07-30T10:03:24;2.75;;;2.55;;
10383;SDS011;5238;43.508;4.980;2023-07-30T10:05:53;1.67;;;1.52;;
10383;SDS011;5238;43.508;4.980;2023-07-30T10:11:18;1.75;;;1.65;;
10383;SDS011;5238;43.508;4.980;2023-07-30T10:13:48;1.92;;;1.65;;
10383;SDS011;5238;43.508;4.980;2023-07-30T10:16:33;2.28;;;2.17;;
10383;SDS011;5238;43.508;4.980;2023-07-30T10:19:00;3.38;;;1.65;;
10383;SDS011;5238;43.508;4.980;2023-07-30T10:24:04;2.17;;;1.45;;
10383;SDS011;5238;43.508;4.980;2023-07-30T10:26:34;1.58;;;1.48;;
10383;SDS011;5238;43.508;4.980;2023-07-30T10:29:15;1.55;;;1.45;;
10383;SDS011;5238;43.508;4.980;2023-07-30T10:31:45;2.08;;;1.67;;
10383;SDS011;5238;43.508;4.980;2023-07-30T10:34:15;1.50;;;1.40;;
10383;SDS011;5238;43.508;4.980;2023-07-30T10:36:43;1.63;;;1.52;;
10383;SDS011;5238;43.508;4.980;2023-07-30T10:39:13;4.60;;;1.50;;
10383;SDS011;5238;43.508;4.980;2023-07-30T10:41:43;1.88;;;1.30;;
10383;SDS011;5238;43.508;4.980;2023-07-30T10:44:23;1.90;;;1.70;;
10383;SDS011;5238;43.508;4.980;2023-07-30T10:46:52;2.28;;;1.40;;
10383;SDS011;5238;43.508;4.980;2023-07-30T10:49:20;1.63;;;1.52;;
10383;SDS011;5238;43.508;4.980;2023-07-30T10:51:47;1.73;;;1.63;;
10383;SDS011;5238;43.508;4.980;2023-07-30T10:54:15;2.25;;;1.50;;
10383;SDS011;5238;43.508;4.980;2023-07-30T10:56:42;1.88;;;1.73;;
10383;SDS011;5238;43.508;4.980;2023-07-30T10:59:10;2.20;;;1.65;;
10383;SDS011;5238;43.508;4.980;2023-07-30T11:01:38;1.70;;;1.60;;
10383;SDS011;5238;43.508;4.980;2023-07-30T11:04:07;2.17;;;1.98;;
10383;SDS011;5238;43.508;4.980;2023-07-30T11:06:35;1.60;;;1.50;;
10383;SDS011;5238;43.508;4.980;2023-07-30T11:09:02;1.52;;;1.42;;
10383;SDS011;5238;43.508;4.980;2023-07-30T11:11:30;2.03;;;1.63;;
10383;SDS011;5238;43.508;4.980;2023-07-30T11:13:58;1.63;;;1.52;;
10383;SDS011;5238;43.508;4.980;2023-07-30T11:16:25;2.28;;;2.13;;
10383;SDS011;5238;43.508;4.980;2023-07-30T11:18:52;1.85;;;1.75;;
10383;SDS011;5238;43.508;4.980;2023-07-30T11:21:19;1.70;;;1.60;;
10383;SDS011;5238;43.508;4.980;2023-07-30T11:23:46;3.33;;;1.92;;
10383;SDS011;5238;43.508;4.980;2023-07-30T11:26:13;2.13;;;1.92;;
10383;SDS011;5238;43.508;4.980;2023-07-30T11:28:43;3.03;;;2.40;;
10383;SDS011;5238;43.508;4.980;2023-07-30T11:31:11;2.22;;;2.00;;
10383;SDS011;5238;43.508;4.980;2023-07-30T11:33:40;2.58;;;2.17;;
10383;SDS011;5238;43.508;4.980;2023-07-30T11:36:09;2.17;;;2.00;;
10383;SDS011;5238;43.508;4.980;2023-07-30T11:38:37;2.92;;;2.13;;
10383;SDS011;5238;43.508;4.980;2023-07-30T11:41:05;1.75;;;1.65;;
10383;SDS011;5238;43.508;4.980;2023-07-30T11:43:35;1.85;;;1.75;;
10383;SDS011;5238;43.508;4.980;2023-07-30T11:46:08;7.07;;;2.20;;
10383;SDS011;5238;43.508;4.980;2023-07-30T11:48:37;5.75;;;2.00;;
10383;SDS011;5238;43.508;4.980;2023-07-30T11:51:04;10.15;;;2.45;;
10383;SDS011;5238;43.508;4.980;2023-07-30T11:53:44;7.18;;;2.28;;
10383;SDS011;5238;43.508;4.980;2023-07-30T11:56:15;1.75;;;1.65;;
10383;SDS011;5238;43.508;4.980;2023-07-30T11:58:49;5.85;;;2.30;;
10383;SDS011;5238;43.508;4.980;2023-07-30T12:01:19;8.85;;;2.30;;
10383;SDS011;5238;43.508;4.980;2023-07-30T12:03:45;4.72;;;2.38;;
10383;SDS011;5238;43.508;4.980;2023-07-30T12:06:12;3.90;;;1.95;;
10383;SDS011;5238;43.508;4.980;2023-07-30T12:08:40;4.82;;;1.83;;
10383;SDS011;5238;43.508;4.980;2023-07-30T12:11:08;4.65;;;1.83;;
10383;SDS011;5238;43.508;4.980;2023-07-30T12:13:41;1.80;;;1.70;;
10383;SDS011;5238;43.508;4.980;2023-07-30T12:16:10;2.00;;;1.60;;
10383;SDS011;5238;43.508;4.980;2023-07-30T12:18:39;4.50;;;2.00;;
10383;SDS011;5238;43.508;4.980;2023-07-30T12:21:06;2.30;;;1.70;;
10383;SDS011;5238;43.508;4.980;2023-07-30T12:23:36;23.98;;;3.13;;
10383;SDS011;5238;43.508;4.980;2023-07-30T12:26:03;2.65;;;1.60;;
10383;SDS011;5238;43.508;4.980;2023-07-30T12:28:30;2.10;;;1.90;;
10383;SDS011;5238;43.508;4.980;2023-07-30T12:30:58;1.95;;;1.85;;
10383;SDS011;5238;43.508;4.980;2023-07-30T12:33:26;1.80;;;1.70;;
10383;SDS011;5238;43.508;4.980;2023-07-30T12:35:55;1.75;;;1.58;;
10383;SDS011;5238;43.508;4.980;2023-07-30T12:38:22;3.75;;;2.17;;
10383;SDS011;5238;43.508;4.980;2023-07-30T12:40:49;1.88;;;1.77;;
10383;SDS011;5238;43.508;4.980;2023-07-30T12:43:16;3.33;;;2.00;;
10383;SDS011;5238;43.508;4.980;2023-07-30T12:45:45;17.90;;;3.42;;
10383;SDS011;5238;43.508;4.980;2023-07-30T12:48:12;4.82;;;1.98;;
10383;SDS011;5238;43.508;4.980;2023-07-30T12:50:39;2.67;;;1.92;;
10383;SDS011;5238;43.508;4.980;2023-07-30T12:53:08;14.15;;;3.42;;
10383;SDS011;5238;43.508;4.980;2023-07-30T12:55:35;7.18;;;2.17;;
10383;SDS011;5238;43.508;4.980;2023-07-30T12:58:03;6.28;;;2.50;;
10383;SDS011;5238;43.508;4.980;2023-07-30T13:00:30;3.33;;;1.70;;
10383;SDS011;5238;43.508;4.980;2023-07-30T13:02:58;1.80;;;1.70;;
10383;SDS011;5238;43.508;4.980;2023-07-30T13:05:25;1.77;;;1.67;;
10383;SDS011;5238;43.508;4.980;2023-07-30T13:07:52;1.80;;;1.67;;
10383;SDS011;5238;43.508;4.980;2023-07-30T13:10:20;2.88;;;1.98;;
10383;SDS011;5238;43.508;4.980;2023-07-30T13:12:47;10.40;;;2.53;;
10383;SDS011;5238;43.508;4.980;2023-07-30T13:15:14;1.90;;;1.75;;
10383;SDS011;5238;43.508;4.980;2023-07-30T13:17:41;3.05;;;1.80;;
10383;SDS011;5238;43.508;4.980;2023-07-30T13:20:08;1.73;;;1.63;;
10383;SDS011;5238;43.508;4.980;2023-07-30T13:22:35;7.03;;;2.85;;
10383;SDS011;5238;43.508;4.980;2023-07-30T13:25:03;2.92;;;1.70;;
10383;SDS011;5238;43.508;4.980;2023-07-30T13:27:31;8.93;;;2.05;;
10383;SDS011;5238;43.508;4.980;2023-07-30T13:29:58;3.83;;;1.50;;
10383;SDS011;5238;43.508;4.980;2023-07-30T13:32:25;4.22;;;1.65;;
10383;SDS011;5238;43.508;4.980;2023-07-30T13:34:52;10.05;;;2.55;;
10383;SDS011;5238;43.508;4.980;2023-07-30T13:37:19;2.05;;;1.23;;
10383;SDS011;5238;43.508;4.980;2023-07-30T13:39:46;2.08;;;1.10;;
10383;SDS011;5238;43.508;4.980;2023-07-30T13:42:13;2.80;;;1.35;;
10383;SDS011;5238;43.508;4.980;2023-07-30T13:44:41;1.13;;;1.02;;
10383;SDS011;5238;43.508;4.980;2023-07-30T13:47:08;1.67;;;1.45;;
10383;SDS011;5238;43.508;4.980;2023-07-30T13:49:35;1.77;;;1.33;;
10383;SDS011;5238;43.508;4.980;2023-07-30T13:52:02;2.50;;;1.65;;
10383;SDS011;5238;43.508;4.980;2023-07-30T13:54:30;1.30;;;1.20;;
10383;SDS011;5238;43.508;4.980;2023-07-30T13:56:57;1.98;;;1.30;;
10383;SDS011;5238;43.508;4.980;2023-07-30T13:59:24;1.30;;;1.20;;
10383;SDS011;5238;43.508;4.980;2023-07-30T14:01:52;2.35;;;1.17;;
10383;SDS011;5238;43.508;4.980;2023-07-30T14:04:19;9.43;;;1.40;;
10383;SDS011;5238;43.508;4.980;2023-07-30T14:06:46;3.63;;;1.45;;
10383;SDS011;5238;43.508;4.980;2023-07-30T14:09:13;1.27;;;1.20;;
10383;SDS011;5238;43.508;4.980;2023-07-30T14:11:40;1.35;;;1.25;;
10383;SDS011;5238;43.508;4.980;2023-07-30T14:14:10;3.08;;;1.48;;
10383;SDS011;5238;43.508;4.980;2023-07-30T14:16:37;1.70;;;1.40;;
10383;SDS011;5238;43.508;4.980;2023-07-30T14:19:05;2.03;;;1.30;;
10383;SDS011;5238;43.508;4.980;2023-07-30T14:21:32;1.50;;;1.40;;
10383;SDS011;5238;43.508;4.980;2023-07-30T14:23:59;2.55;;;1.20;;
10383;SDS011;5238;43.508;4.980;2023-07-30T14:26:26;1.27;;;1.17;;
10383;SDS011;5238;43.508;4.980;2023-07-30T14:28:53;1.73;;;1.15;;
10383;SDS011;5238;43.508;4.980;2023-07-30T14:31:20;2.95;;;1.33;;
10383;SDS011;5238;43.508;4.980;2023-07-30T14:33:47;2.03;;;1.20;;
10383;SDS011;5238;43.508;4.980;2023-07-30T14:36:15;3.78;;;1.20;;
10383;SDS011;5238;43.508;4.980;2023-07-30T14:38:42;2.17;;;1.30;;
10383;SDS011;5238;43.508;4.980;2023-07-30T14:41:09;3.67;;;1.40;;
10383;SDS011;5238;43.508;4.980;2023-07-30T14:43:36;1.48;;;1.15;;
10383;SDS011;5238;43.508;4.980;2023-07-30T14:46:03;8.73;;;1.50;;
10383;SDS011;5238;43.508;4.980;2023-07-30T14:48:31;2.30;;;1.45;;
10383;SDS011;5238;43.508;4.980;2023-07-30T14:50:57;2.33;;;1.42;;
10383;SDS011;5238;43.508;4.980;2023-07-30T14:53:26;2.05;;;1.10;;
10383;SDS011;5238;43.508;4.980;2023-07-30T14:55:53;1.20;;;1.10;;
10383;SDS011;5238;43.508;4.980;2023-07-30T14:58:20;1.20;;;1.10;;
10383;SDS011;5238;43.508;4.980;2023-07-30T15:00:47;1.58;;;1.30;;
10383;SDS011;5238;43.508;4.980;2023-07-30T15:03:14;2.33;;;1.23;;
10383;SDS011;5238;43.508;4.980;2023-07-30T15:05:41;2.95;;;1.23;;
10383;SDS011;5238;43.508;4.980;2023-07-30T15:08:08;1.42;;;1.27;;